createdAt,value
2019-01-10T00:00:14.863Z,3.70
2019-01-10T00:02:45.158Z,3.22
2019-01-10T00:05:16.068Z,6.65
2019-01-10T00:07:46.055Z,6.92
2019-01-10T00:10:17.684Z,3.72
2019-01-10T00:12:47.955Z,4.53
2019-01-10T00:15:19.733Z,2.85
2019-01-10T00:17:50.538Z,4.85
2019-01-10T00:20:21.342Z,2.62
2019-01-10T00:22:52.231Z,4.25
2019-01-10T00:25:22.433Z,3.77
2019-01-10T00:27:53.254Z,3.17
2019-01-10T00:30:23.706Z,4.17
2019-01-10T00:32:53.884Z,5.97
2019-01-10T00:35:24.302Z,4.15
2019-01-10T00:37:54.704Z,3.55
2019-01-10T00:40:25.343Z,4.08
2019-01-10T00:42:55.462Z,6.22
2019-01-10T00:45:25.859Z,5.42
2019-01-10T00:47:56.205Z,4.80
2019-01-10T00:50:26.297Z,1.87
2019-01-10T00:52:56.982Z,4.90
2019-01-10T00:55:27.706Z,6.95
2019-01-10T00:57:58.722Z,3.83
2019-01-10T01:00:28.984Z,5.78
2019-01-10T01:02:59.058Z,6.10
2019-01-10T01:05:29.871Z,5.10
2019-01-10T01:08:00.257Z,6.47
2019-01-10T01:10:30.566Z,4.25
2019-01-10T01:13:01.439Z,4.53
2019-01-10T01:15:32.099Z,6.78
2019-01-10T01:18:02.412Z,8.43
2019-01-10T01:20:32.882Z,3.20
2019-01-10T01:23:03.462Z,5.65
2019-01-10T01:25:35.466Z,4.95
2019-01-10T01:28:06.215Z,5.78
2019-01-10T01:30:36.429Z,4.83
2019-01-10T01:33:06.596Z,4.25
2019-01-10T01:35:37.088Z,6.10
2019-01-10T01:38:08.984Z,7.05
2019-01-10T01:40:39.472Z,5.08
2019-01-10T01:43:09.794Z,3.98
2019-01-10T01:45:39.948Z,4.08
2019-01-10T01:48:10.166Z,5.62
2019-01-10T01:50:40.858Z,3.90
2019-01-10T01:53:11.044Z,7.58
2019-01-10T01:55:41.420Z,4.53
2019-01-10T01:58:11.885Z,3.98
2019-01-10T02:00:42.565Z,6.95
2019-01-10T02:03:13.288Z,6.00
2019-01-10T02:05:43.672Z,6.10
2019-01-10T02:08:13.876Z,3.27
2019-01-10T02:10:43.970Z,3.55
2019-01-10T02:13:16.953Z,5.50
2019-01-10T02:15:46.420Z,4.67
2019-01-10T02:18:16.716Z,5.37
2019-01-10T02:20:48.525Z,7.15
2019-01-10T02:23:18.942Z,4.00
2019-01-10T02:25:49.279Z,5.97
2019-01-10T02:28:19.370Z,2.47
2019-01-10T02:30:50.000Z,7.83
2019-01-10T02:33:20.701Z,7.30
2019-01-10T02:35:51.326Z,4.85
2019-01-10T02:38:21.547Z,4.45
2019-01-10T02:40:51.864Z,6.78
2019-01-10T02:43:26.663Z,3.33
2019-01-10T02:45:54.473Z,4.28
2019-01-10T02:48:24.996Z,4.12
2019-01-10T02:50:55.711Z,8.18
2019-01-10T02:53:26.326Z,6.85
2019-01-10T02:55:57.251Z,5.95
2019-01-10T02:58:27.709Z,7.33
2019-01-10T03:00:58.025Z,6.90
2019-01-10T03:03:29.209Z,5.22
2019-01-10T03:06:00.129Z,1.55
2019-01-10T03:08:30.706Z,3.17
2019-01-10T03:11:01.373Z,2.95
2019-01-10T03:13:36.571Z,3.50
2019-01-10T03:16:03.397Z,6.78
2019-01-10T03:18:33.769Z,4.55
2019-01-10T03:21:04.028Z,2.95
2019-01-10T03:23:34.623Z,7.62
2019-01-10T03:26:05.110Z,4.12
2019-01-10T03:28:35.577Z,2.20
2019-01-10T03:31:05.849Z,3.17
2019-01-10T03:33:36.382Z,7.30
2019-01-10T03:36:06.729Z,2.30
2019-01-10T03:38:37.414Z,4.67
2019-01-10T03:41:08.028Z,1.72
2019-01-10T03:43:46.690Z,7.00
2019-01-10T03:46:12.462Z,4.87
2019-01-10T03:48:42.824Z,4.00
2019-01-10T03:51:13.209Z,6.10
2019-01-10T03:53:43.443Z,3.92
2019-01-10T03:56:13.907Z,4.42
2019-01-10T03:58:44.295Z,3.75
2019-01-10T04:01:14.393Z,6.23
2019-01-10T04:03:44.980Z,2.98
2019-01-10T04:06:15.570Z,4.72
2019-01-10T04:08:46.927Z,7.00
2019-01-10T04:11:17.479Z,8.18
2019-01-10T04:13:57.058Z,6.08
2019-01-10T04:16:19.751Z,5.55
2019-01-10T04:18:49.956Z,5.90
2019-01-10T04:21:20.501Z,3.33
2019-01-10T04:23:52.676Z,4.17
2019-01-10T04:26:22.710Z,4.08
2019-01-10T04:28:53.956Z,4.85
2019-01-10T04:31:24.336Z,1.82
2019-01-10T04:33:54.879Z,4.70
2019-01-10T04:36:25.477Z,2.02
2019-01-10T04:38:55.963Z,1.20
2019-01-10T04:41:26.188Z,3.55
2019-01-10T04:43:56.537Z,3.00
2019-01-10T04:46:27.342Z,8.63
2019-01-10T04:48:58.365Z,3.87
2019-01-10T04:51:28.856Z,3.15
2019-01-10T04:53:58.989Z,4.12
2019-01-10T04:56:29.387Z,4.30
2019-01-10T04:58:59.584Z,1.37
2019-01-10T05:01:29.734Z,2.87
2019-01-10T05:04:00.029Z,4.45
2019-01-10T05:06:30.490Z,4.08
2019-01-10T05:09:01.038Z,4.28
2019-01-10T05:11:31.436Z,3.37
2019-01-10T05:14:01.859Z,6.20
2019-01-10T05:16:32.282Z,4.37
2019-01-10T05:19:02.788Z,3.37
2019-01-10T05:21:33.022Z,6.75
2019-01-10T05:24:03.499Z,7.42
2019-01-10T05:26:33.686Z,3.98
2019-01-10T05:29:03.830Z,5.60
2019-01-10T05:31:34.160Z,3.47
2019-01-10T05:34:05.862Z,6.53
2019-01-10T05:36:36.829Z,7.30
2019-01-10T05:39:08.434Z,3.55
2019-01-10T05:41:38.726Z,2.22
2019-01-10T05:44:09.013Z,5.40
2019-01-10T05:46:48.128Z,3.83
2019-01-10T05:49:11.827Z,5.08
2019-01-10T05:51:42.034Z,3.20
2019-01-10T05:54:12.543Z,3.00
2019-01-10T05:56:42.628Z,5.17
2019-01-10T05:59:12.847Z,3.77
2019-01-10T06:01:43.321Z,4.33
2019-01-10T06:04:13.333Z,3.37
2019-01-10T06:06:43.778Z,4.72
2019-01-10T06:09:14.395Z,5.15
2019-01-10T06:11:44.400Z,9.98
2019-01-10T06:14:14.593Z,8.55
2019-01-10T06:16:45.291Z,11.28
2019-01-10T06:19:15.763Z,9.75
2019-01-10T06:21:46.126Z,6.47
2019-01-10T06:24:16.719Z,6.50
2019-01-10T06:26:47.630Z,5.70
2019-01-10T06:29:18.197Z,8.65
2019-01-10T06:31:48.994Z,6.22
2019-01-10T06:34:19.413Z,7.60
2019-01-10T06:36:49.666Z,9.53
2019-01-10T06:39:20.480Z,8.63
2019-01-10T06:41:50.808Z,6.33
2019-01-10T06:44:21.590Z,8.73
2019-01-10T06:46:52.027Z,11.73
2019-01-10T06:49:22.329Z,11.40
2019-01-10T06:51:52.819Z,6.10
2019-01-10T06:54:23.125Z,8.50
2019-01-10T06:56:53.182Z,9.53
2019-01-10T06:59:23.262Z,5.90
2019-01-10T07:01:53.513Z,7.15
2019-01-10T07:04:23.852Z,7.80
2019-01-10T07:06:54.084Z,11.15
2019-01-10T07:09:24.126Z,7.37
2019-01-10T07:11:54.227Z,5.43
2019-01-10T07:14:24.315Z,4.35
2019-01-10T07:16:54.295Z,5.75
2019-01-10T07:19:30.359Z,5.03
2019-01-10T07:22:00.329Z,6.03
2019-01-10T07:24:30.418Z,4.33
2019-01-10T07:27:00.736Z,14.03
2019-01-10T07:29:30.957Z,5.60
2019-01-10T07:32:01.120Z,10.28
2019-01-10T07:34:31.632Z,8.87
2019-01-10T07:37:02.131Z,6.73
2019-01-10T07:39:36.945Z,6.80
2019-01-10T07:42:07.561Z,7.17
2019-01-10T07:44:39.095Z,6.60
2019-01-10T07:47:09.711Z,10.60
2019-01-10T07:49:39.829Z,7.22
2019-01-10T07:52:09.880Z,7.58
2019-01-10T07:54:39.932Z,8.50
2019-01-10T07:57:10.300Z,11.63
2019-01-10T07:59:40.543Z,15.98
2019-01-10T08:02:10.879Z,6.37
2019-01-10T08:04:41.142Z,7.47
2019-01-10T08:07:12.137Z,15.03
2019-01-10T08:09:42.163Z,11.03
2019-01-10T08:12:12.210Z,10.53
2019-01-10T08:14:42.527Z,11.23
2019-01-10T08:17:16.173Z,9.67
2019-01-10T08:19:44.907Z,11.53
2019-01-10T08:22:15.412Z,12.50
2019-01-10T08:24:45.666Z,9.18
2019-01-10T08:27:16.022Z,14.90
2019-01-10T08:29:46.533Z,12.98
2019-01-10T08:32:16.895Z,11.63
2019-01-10T08:34:47.330Z,11.03
2019-01-10T08:37:17.497Z,11.95
2019-01-10T08:39:47.385Z,9.85
2019-01-10T08:42:17.340Z,12.18
2019-01-10T08:44:47.590Z,14.10
2019-01-10T08:47:17.823Z,10.85
2019-01-10T08:49:48.518Z,14.70
2019-01-10T08:52:18.463Z,11.18
2019-01-10T08:54:48.760Z,13.10
2019-01-10T08:57:18.975Z,11.47
2019-01-10T08:59:49.191Z,11.30
2019-01-10T09:02:19.604Z,11.03
2019-01-10T09:04:50.163Z,10.15
2019-01-10T09:07:20.488Z,11.38
2019-01-10T09:09:51.003Z,11.33
2019-01-10T09:12:22.251Z,12.40
2019-01-10T09:14:52.903Z,10.98
2019-01-10T09:17:23.103Z,10.18
2019-01-10T09:19:53.108Z,10.30
2019-01-10T09:22:23.318Z,11.03
2019-01-10T09:24:53.812Z,11.63
2019-01-10T09:27:24.093Z,12.33
2019-01-10T09:29:54.249Z,10.38
2019-01-10T09:32:24.765Z,9.70
2019-01-10T09:34:55.030Z,10.00
2019-01-10T09:37:25.323Z,8.93
2019-01-10T09:39:55.817Z,10.78
2019-01-10T09:42:26.793Z,10.27
2019-01-10T09:44:57.195Z,14.60
2019-01-10T09:47:27.303Z,10.57
2019-01-10T09:49:57.619Z,11.83
2019-01-10T09:52:28.050Z,9.90
2019-01-10T09:54:58.606Z,10.60
2019-01-10T09:57:29.064Z,12.00
2019-01-10T09:59:59.413Z,13.10
2019-01-10T10:02:29.601Z,13.30
2019-01-10T10:05:00.799Z,10.53
2019-01-10T10:07:31.240Z,12.40
2019-01-10T10:10:01.472Z,11.73
2019-01-10T10:12:31.427Z,13.50
2019-01-10T10:15:01.618Z,8.10
2019-01-10T10:17:31.957Z,11.27
2019-01-10T10:20:03.646Z,10.72
2019-01-10T10:22:34.355Z,11.40
2019-01-10T10:25:05.250Z,14.30
2019-01-10T10:27:36.153Z,13.93
2019-01-10T10:30:10.203Z,13.30
2019-01-10T10:32:40.765Z,13.20
2019-01-10T10:35:11.500Z,13.10
2019-01-10T10:37:41.918Z,11.97
2019-01-10T10:40:15.330Z,9.35
2019-01-10T10:42:45.937Z,11.10
2019-01-10T10:45:18.835Z,9.87
2019-01-10T10:47:49.338Z,13.77
2019-01-10T10:50:22.675Z,11.07
2019-01-10T10:52:53.206Z,12.00
2019-01-10T10:55:24.145Z,10.67
2019-01-10T10:57:55.329Z,10.87
2019-01-10T11:00:27.693Z,11.73
2019-01-10T11:02:59.868Z,12.20
2019-01-10T11:05:30.809Z,13.13
2019-01-10T11:08:01.351Z,12.13
2019-01-10T11:10:31.610Z,9.60
2019-01-10T11:13:02.093Z,14.30
2019-01-10T11:15:32.389Z,10.73
2019-01-10T11:18:02.419Z,11.00
2019-01-10T11:20:32.618Z,14.27
2019-01-10T11:23:10.518Z,10.87
2019-01-10T11:25:37.601Z,11.20
2019-01-10T11:28:08.012Z,10.10
2019-01-10T11:30:38.257Z,9.87
2019-01-10T11:33:08.498Z,14.00
2019-01-10T11:35:38.499Z,18.00
2019-01-10T11:38:08.650Z,9.00
2019-01-10T11:40:38.983Z,10.13
2019-01-10T11:43:09.184Z,13.03
2019-01-10T11:45:39.454Z,9.83
2019-01-10T11:48:09.526Z,10.77
2019-01-10T11:50:39.984Z,10.00
2019-01-10T11:53:10.096Z,9.77
2019-01-10T11:55:40.063Z,13.40
2019-01-10T11:58:10.147Z,10.05
2019-01-10T12:00:40.704Z,12.80
2019-01-10T12:03:11.519Z,10.97
2019-01-10T12:05:47.580Z,8.57
2019-01-10T12:08:14.310Z,11.57
2019-01-10T12:10:44.804Z,10.73
2019-01-10T12:13:14.977Z,12.17
2019-01-10T12:15:45.267Z,12.13
2019-01-10T12:18:15.715Z,12.77
2019-01-10T12:20:45.804Z,10.77
2019-01-10T12:23:16.910Z,16.63
2019-01-10T12:25:46.944Z,14.53
2019-01-10T12:28:17.064Z,15.40
2019-01-10T12:30:47.332Z,15.13
2019-01-10T12:33:17.499Z,22.73
2019-01-10T12:35:47.950Z,22.50
2019-01-10T12:38:19.312Z,13.80
2019-01-10T12:40:49.870Z,15.17
2019-01-10T12:43:20.409Z,11.43
2019-01-10T12:45:50.497Z,13.43
2019-01-10T12:48:20.663Z,8.77
2019-01-10T12:50:51.063Z,10.60
2019-01-10T12:53:22.313Z,10.57
2019-01-10T12:55:52.520Z,14.43
2019-01-10T12:58:22.901Z,14.13
2019-01-10T13:00:53.002Z,14.93
2019-01-10T13:03:23.425Z,17.10
2019-01-10T13:05:53.945Z,12.00
2019-01-10T13:08:23.852Z,10.73
2019-01-10T13:10:53.947Z,7.57
2019-01-10T13:13:24.039Z,13.10
2019-01-10T13:15:54.387Z,9.37
2019-01-10T13:18:24.566Z,11.03
2019-01-10T13:20:54.921Z,10.50
2019-01-10T13:23:24.802Z,8.60
2019-01-10T13:25:59.694Z,10.13
2019-01-10T13:28:26.934Z,8.93
2019-01-10T13:30:57.306Z,9.43
2019-01-10T13:33:27.407Z,8.77
2019-01-10T13:35:57.729Z,10.00
2019-01-10T13:38:28.238Z,8.20
2019-01-10T13:40:58.724Z,7.37
2019-01-10T13:43:29.139Z,9.23
2019-01-10T13:45:59.372Z,8.63
2019-01-10T13:48:29.337Z,8.60
2019-01-10T13:50:59.665Z,9.53
2019-01-10T13:53:30.025Z,9.43
2019-01-10T13:56:00.005Z,6.60
2019-01-10T13:58:30.194Z,8.37
2019-01-10T14:01:00.293Z,9.25
2019-01-10T14:03:30.400Z,12.63
2019-01-10T14:06:00.447Z,8.65
2019-01-10T14:08:30.372Z,6.40
2019-01-10T14:11:00.499Z,7.33
2019-01-10T14:13:30.545Z,6.77
2019-01-10T14:16:00.613Z,10.75
2019-01-10T14:18:30.571Z,10.13
2019-01-10T14:21:00.895Z,10.80
2019-01-10T14:23:32.233Z,6.70
2019-01-10T14:26:02.511Z,6.47
2019-01-10T14:28:33.009Z,9.27
2019-01-10T14:31:03.402Z,6.27
2019-01-10T14:33:33.694Z,7.80
2019-01-10T14:36:04.227Z,5.03
2019-01-10T14:38:34.739Z,9.68
2019-01-10T14:41:04.983Z,9.27
2019-01-10T14:43:35.339Z,4.70
2019-01-10T14:46:05.812Z,5.23
2019-01-10T14:48:36.432Z,11.90
2019-01-10T14:51:06.908Z,8.77
2019-01-10T14:53:37.256Z,7.57
2019-01-10T14:56:07.816Z,7.37
2019-01-10T14:58:37.996Z,11.63
2019-01-10T15:01:09.444Z,7.90
2019-01-10T15:03:41.020Z,8.65
2019-01-10T15:06:13.522Z,9.65
2019-01-10T15:08:44.892Z,4.87
2019-01-10T15:11:16.042Z,5.42
2019-01-10T15:13:46.567Z,8.80
2019-01-10T15:16:17.260Z,9.43
2019-01-10T15:18:47.625Z,7.03
2019-01-10T15:21:17.944Z,8.28
2019-01-10T15:23:48.109Z,6.73
2019-01-10T15:26:18.007Z,10.65
2019-01-10T15:28:48.256Z,7.87
2019-01-10T15:31:19.003Z,6.83
2019-01-10T15:33:49.706Z,16.03
2019-01-10T15:36:20.029Z,6.07
2019-01-10T15:38:50.439Z,8.80
2019-01-10T15:41:21.009Z,10.13
2019-01-10T15:43:51.330Z,8.37
2019-01-10T15:46:21.604Z,13.93
2019-01-10T15:48:51.980Z,6.20
2019-01-10T15:51:22.013Z,9.03
2019-01-10T15:53:53.245Z,11.00
2019-01-10T15:56:23.562Z,7.87
2019-01-10T15:58:53.873Z,7.95
2019-01-10T16:01:24.306Z,10.85
2019-01-10T16:03:54.912Z,12.58
2019-01-10T16:06:25.243Z,9.10
2019-01-10T16:08:55.576Z,7.12
2019-01-10T16:11:25.631Z,11.38
2019-01-10T16:13:55.723Z,7.37
2019-01-10T16:16:25.887Z,5.97
2019-01-10T16:18:56.334Z,9.95
2019-01-10T16:21:26.599Z,10.45
2019-01-10T16:23:56.913Z,11.80
2019-01-10T16:26:29.307Z,7.20
2019-01-10T16:28:59.578Z,8.93
2019-01-10T16:31:29.790Z,6.58
2019-01-10T16:34:00.008Z,7.25
2019-01-10T16:36:30.388Z,7.85
2019-01-10T16:39:00.826Z,10.63
2019-01-10T16:41:30.782Z,9.03
2019-01-10T16:44:00.855Z,12.98
2019-01-10T16:46:31.639Z,6.03
2019-01-10T16:49:02.125Z,6.05
2019-01-10T16:51:32.942Z,10.95
2019-01-10T16:54:03.588Z,8.53
2019-01-10T16:56:33.919Z,10.82
2019-01-10T16:59:04.384Z,8.68
2019-01-10T17:01:34.879Z,7.60
2019-01-10T17:04:05.528Z,7.50
2019-01-10T17:06:36.456Z,12.60
2019-01-10T17:09:08.270Z,7.58
2019-01-10T17:11:38.864Z,10.80
2019-01-10T17:14:09.395Z,12.03
2019-01-10T17:16:40.277Z,11.35
2019-01-10T17:19:10.641Z,9.23
2019-01-10T17:21:41.187Z,10.80
2019-01-10T17:24:11.583Z,10.32
2019-01-10T17:26:41.826Z,12.78
2019-01-10T17:29:12.560Z,10.23
2019-01-10T17:31:43.192Z,11.68
2019-01-10T17:34:13.580Z,12.18
2019-01-10T17:36:44.165Z,11.93
2019-01-10T17:39:15.896Z,10.93
2019-01-10T17:41:46.255Z,16.07
2019-01-10T17:44:16.683Z,10.03
2019-01-10T17:46:47.046Z,12.45
2019-01-10T17:49:17.317Z,8.33
2019-01-10T17:51:47.939Z,12.13
2019-01-10T17:54:19.364Z,8.08
2019-01-10T17:56:50.445Z,8.00
2019-01-10T17:59:21.013Z,11.28
2019-01-10T18:01:51.151Z,12.53
2019-01-10T18:04:21.635Z,9.65
2019-01-10T18:06:52.451Z,10.05
2019-01-10T18:09:22.948Z,12.40
2019-01-10T18:11:53.294Z,11.07
2019-01-10T18:14:23.736Z,6.53
2019-01-10T18:16:54.055Z,9.30
2019-01-10T18:19:25.030Z,6.05
2019-01-10T18:21:56.253Z,8.70
2019-01-10T18:24:27.262Z,7.87
2019-01-10T18:26:58.130Z,10.30
2019-01-10T18:29:32.758Z,16.17
2019-01-10T18:32:01.419Z,7.92
2019-01-10T18:34:33.019Z,9.28
2019-01-10T18:37:03.693Z,10.10
2019-01-10T18:39:34.056Z,10.30
2019-01-10T18:42:04.547Z,9.33
2019-01-10T18:44:35.568Z,11.60
2019-01-10T18:47:06.308Z,9.20
2019-01-10T18:49:37.083Z,5.30
2019-01-10T18:52:07.434Z,8.13
2019-01-10T18:54:37.896Z,6.10
2019-01-10T18:57:09.085Z,8.20
2019-01-10T18:59:40.480Z,7.10
2019-01-10T19:02:10.754Z,12.58
2019-01-10T19:04:40.859Z,7.05
2019-01-10T19:07:11.161Z,8.33
2019-01-10T19:09:41.394Z,7.10
2019-01-10T19:12:11.591Z,7.70
2019-01-10T19:14:41.950Z,9.10
2019-01-10T19:17:12.592Z,4.78
2019-01-10T19:19:42.733Z,6.20
2019-01-10T19:22:13.155Z,9.73
2019-01-10T19:24:43.371Z,7.22
2019-01-10T19:27:13.696Z,8.38
2019-01-10T19:29:43.989Z,5.85
2019-01-10T19:32:14.436Z,7.10
2019-01-10T19:34:44.711Z,6.83
2019-01-10T19:37:15.586Z,5.03
2019-01-10T19:39:45.823Z,7.03
2019-01-10T19:42:16.461Z,4.65
2019-01-10T19:44:55.508Z,4.67
2019-01-10T19:47:29.557Z,8.40
2019-01-10T19:50:00.447Z,8.25
2019-01-10T19:52:31.283Z,5.17
2019-01-10T19:55:01.812Z,8.03
2019-01-10T19:57:33.114Z,7.65
2019-01-10T20:00:05.787Z,6.05
2019-01-10T20:02:36.740Z,7.08
2019-01-10T20:05:08.233Z,6.42
2019-01-10T20:07:38.846Z,6.33
2019-01-10T20:10:15.137Z,5.25
2019-01-10T20:12:45.678Z,7.15
2019-01-10T20:15:16.066Z,8.38
2019-01-10T20:17:47.095Z,6.10
2019-01-10T20:20:29.810Z,9.83
2019-01-10T20:23:00.315Z,7.37
2019-01-10T20:25:30.575Z,7.92
2019-01-10T20:28:00.622Z,8.63
2019-01-10T20:30:30.829Z,7.17
2019-01-10T20:33:01.103Z,7.55
2019-01-10T20:35:31.804Z,7.72
2019-01-10T20:38:02.840Z,11.22
2019-01-10T20:40:33.140Z,8.18
2019-01-10T20:43:03.851Z,8.65
2019-01-10T20:45:34.395Z,9.23
2019-01-10T20:48:04.719Z,8.10
2019-01-10T20:50:35.550Z,7.70
2019-01-10T20:53:06.004Z,9.70
2019-01-10T20:55:36.964Z,6.90
2019-01-10T20:58:08.266Z,8.90
2019-01-10T21:00:38.971Z,10.23
2019-01-10T21:03:09.563Z,8.08
2019-01-10T21:05:40.866Z,8.08
2019-01-10T21:08:11.772Z,9.13
2019-01-10T21:10:43.281Z,7.78
2019-01-10T21:13:14.441Z,8.75
2019-01-10T21:15:45.013Z,8.25
2019-01-10T21:18:16.154Z,7.95
2019-01-10T21:20:46.477Z,8.85
2019-01-10T21:23:18.129Z,10.20
2019-01-10T21:25:49.108Z,8.05
2019-01-10T21:28:19.905Z,7.72
2019-01-10T21:30:50.575Z,10.23
2019-01-10T21:33:22.736Z,11.22
2019-01-10T21:35:53.673Z,9.80
2019-01-10T21:38:24.357Z,8.88
2019-01-10T21:40:55.314Z,11.45
2019-01-10T21:43:25.679Z,8.78
2019-01-10T21:45:57.649Z,9.20
2019-01-10T21:48:34.880Z,9.90
2019-01-10T21:51:01.264Z,11.45
2019-01-10T21:53:32.892Z,9.23
2019-01-10T21:56:04.023Z,10.85
2019-01-10T21:58:34.162Z,9.80
2019-01-10T22:01:04.685Z,12.13
2019-01-10T22:03:34.886Z,10.98
2019-01-10T22:06:04.943Z,11.43
2019-01-10T22:08:35.059Z,15.00
2019-01-10T22:11:05.785Z,12.63
2019-01-10T22:13:36.713Z,12.13
2019-01-10T22:16:07.789Z,13.53
2019-01-10T22:18:41.609Z,14.90
2019-01-10T22:21:10.634Z,12.35
2019-01-10T22:23:41.146Z,11.33
2019-01-10T22:26:12.000Z,11.55
2019-01-10T22:28:42.633Z,12.25
2019-01-10T22:31:12.853Z,12.82
2019-01-10T22:33:42.979Z,13.50
2019-01-10T22:36:14.433Z,12.45
2019-01-10T22:38:45.091Z,13.30
2019-01-10T22:41:16.031Z,12.78
2019-01-10T22:43:46.142Z,13.05
2019-01-10T22:46:16.506Z,12.50
2019-01-10T22:48:47.916Z,11.88
2019-01-10T22:51:19.372Z,12.07
2019-01-10T22:53:49.607Z,11.97
2019-01-10T22:56:20.136Z,14.00
2019-01-10T22:58:51.241Z,10.58
2019-01-10T23:01:26.309Z,12.00
2019-01-10T23:03:56.681Z,13.70
2019-01-10T23:06:27.402Z,12.53
2019-01-10T23:08:58.247Z,12.30
2019-01-10T23:11:28.748Z,12.98
2019-01-10T23:13:59.094Z,13.60
2019-01-10T23:16:30.415Z,13.70
2019-01-10T23:19:01.511Z,13.20
2019-01-10T23:21:32.107Z,13.28
2019-01-10T23:24:03.005Z,12.55
2019-01-10T23:26:33.634Z,14.03
2019-01-10T23:29:04.216Z,13.75
2019-01-10T23:31:34.654Z,13.28
2019-01-10T23:34:07.467Z,16.25
2019-01-10T23:36:38.163Z,16.30
2019-01-10T23:39:13.346Z,17.50
2019-01-10T23:41:43.768Z,15.75
2019-01-10T23:44:14.369Z,17.17
2019-01-10T23:46:44.930Z,19.52
2019-01-10T23:49:15.337Z,19.25
2019-01-10T23:51:45.915Z,20.72
2019-01-10T23:54:16.339Z,18.85
2019-01-10T23:56:46.893Z,20.30
2019-01-10T23:59:17.426Z,19.37
